FFT4130 KLAX-KSLC
Flight info
| Callsign | FFT4130 |
|---|---|
| Flight time | N/A |
| Altitude | 37000 |
| Route | ORCKA5 LAS Q70 BLIPP Q842 WINEN MLF QWENN6 |
| Aircraft | A320/M-SDE3FGHIRWY/LB1 |
Departure
| Time | 2026-04-21 00:20 |
|---|---|
| Airport | Los Angeles International Airport (KLAX) |
Arrival
| Time | N/A |
|---|---|
| Airport | Salt Lake City International Airport (KSLC) |
| Time | Latitude | Longitude | Altitude | Speed | Heading |
|---|---|---|---|---|---|
| 2026-04-20 23:29 | 33.94274 | -118.41433 | 126 ft | 0 kts | 264° |
| 2026-04-21 00:03 | 33.94276 | -118.41418 | 126 ft | 4 kts | 250° |
| 2026-04-21 00:04 | 33.94289 | -118.41396 | 119 ft | 4 kts | 205° |
| 2026-04-21 00:04 | 33.94314 | -118.41389 | 121 ft | 3 kts | 175° |
| 2026-04-21 00:04 | 33.94319 | -118.41390 | 122 ft | 0 kts | 173° |
| 2026-04-21 00:05 | 33.94147 | -118.41417 | 122 ft | 0 kts | 263° |
| 2026-04-21 00:05 | 33.94147 | -118.41407 | 122 ft | 2 kts | 263° |
| 2026-04-21 00:05 | 33.94148 | -118.41398 | 122 ft | 2 kts | 263° |
| 2026-04-21 00:06 | 33.94153 | -118.41378 | 122 ft | 2 kts | 251° |
| 2026-04-21 00:06 | 33.94159 | -118.41360 | 122 ft | 2 kts | 243° |
| 2026-04-21 00:06 | 33.94168 | -118.41342 | 123 ft | 2 kts | 226° |
| 2026-04-21 00:06 | 33.94179 | -118.41326 | 122 ft | 2 kts | 213° |
| 2026-04-21 00:07 | 33.94193 | -118.41315 | 124 ft | 2 kts | 208° |
| 2026-04-21 00:07 | 33.94202 | -118.41311 | 123 ft | 0 kts | 164° |
| 2026-04-21 00:11 | 33.94181 | -118.41305 | 120 ft | 8 kts | 171° |
| 2026-04-21 00:11 | 33.94124 | -118.41298 | 126 ft | 7 kts | 174° |
| 2026-04-21 00:11 | 33.94078 | -118.41293 | 125 ft | 6 kts | 175° |
| 2026-04-21 00:12 | 33.94039 | -118.41288 | 123 ft | 6 kts | 173° |
| 2026-04-21 00:12 | 33.93938 | -118.41274 | 124 ft | 23 kts | 176° |
| 2026-04-21 00:12 | 33.93787 | -118.41251 | 123 ft | 14 kts | 165° |
| 2026-04-21 00:12 | 33.93759 | -118.41163 | 126 ft | 11 kts | 81° |
| 2026-04-21 00:13 | 33.93772 | -118.41061 | 126 ft | 10 kts | 82° |
| 2026-04-21 00:13 | 33.93780 | -118.40982 | 126 ft | 9 kts | 83° |
| 2026-04-21 00:13 | 33.93787 | -118.40913 | 126 ft | 9 kts | 83° |
| 2026-04-21 00:13 | 33.93799 | -118.40782 | 124 ft | 20 kts | 83° |
| 2026-04-21 00:14 | 33.93815 | -118.40623 | 126 ft | 19 kts | 83° |
| 2026-04-21 00:14 | 33.93830 | -118.40471 | 124 ft | 17 kts | 82° |
| 2026-04-21 00:14 | 33.93845 | -118.40335 | 126 ft | 16 kts | 84° |
| 2026-04-21 00:14 | 33.93857 | -118.40209 | 126 ft | 15 kts | 83° |
| 2026-04-21 00:15 | 33.93869 | -118.40093 | 123 ft | 13 kts | 82° |
| 2026-04-21 00:15 | 33.93873 | -118.40052 | 126 ft | 13 kts | 82° |
| 2026-04-21 00:15 | 33.93886 | -118.39931 | 126 ft | 11 kts | 83° |
| 2026-04-21 00:16 | 33.93913 | -118.39655 | 123 ft | 19 kts | 83° |
| 2026-04-21 00:16 | 33.93931 | -118.39486 | 126 ft | 22 kts | 82° |
| 2026-04-21 00:16 | 33.93950 | -118.39284 | 124 ft | 26 kts | 81° |
| 2026-04-21 00:16 | 33.93975 | -118.39074 | 126 ft | 25 kts | 83° |
| 2026-04-21 00:17 | 33.93994 | -118.38874 | 126 ft | 23 kts | 83° |
| 2026-04-21 00:17 | 33.94012 | -118.38689 | 121 ft | 21 kts | 83° |
| 2026-04-21 00:17 | 33.94031 | -118.38518 | 126 ft | 20 kts | 82° |
| 2026-04-21 00:17 | 33.94047 | -118.38359 | 126 ft | 18 kts | 83° |
| 2026-04-21 00:18 | 33.94061 | -118.38211 | 126 ft | 17 kts | 84° |
| 2026-04-21 00:18 | 33.94075 | -118.38074 | 126 ft | 16 kts | 83° |
| 2026-04-21 00:18 | 33.94052 | -118.38001 | 126 ft | 9 kts | 161° |
| 2026-04-21 00:18 | 33.94010 | -118.38003 | 123 ft | 8 kts | 192° |
| 2026-04-21 00:19 | 33.93978 | -118.38074 | 126 ft | 9 kts | 263° |
| 2026-04-21 00:19 | 33.93963 | -118.38240 | 123 ft | 48 kts | 263° |
| 2026-04-21 00:19 | 33.93890 | -118.38956 | 125 ft | 114 kts | 263° |
| 2026-04-21 00:19 | 33.93771 | -118.40120 | 127 ft | 162 kts | 263° |
| 2026-04-21 00:20 | 33.93671 | -118.41069 | 378 ft | 172 kts | 263° |
| 2026-04-21 00:20 | 33.93465 | -118.42600 | 926 ft | 189 kts | 260° |
| 2026-04-21 00:20 | 33.93139 | -118.44749 | 1600 ft | 213 kts | 263° |
| 2026-04-21 00:20 | 33.92980 | -118.45987 | 2157 ft | 216 kts | 258° |
| 2026-04-21 00:21 | 33.92599 | -118.47830 | 2642 ft | 239 kts | 251° |
| 2026-04-21 00:21 | 33.91993 | -118.49744 | 3273 ft | 253 kts | 246° |
| 2026-04-21 00:21 | 33.91279 | -118.51715 | 4112 ft | 256 kts | 245° |
| 2026-04-21 00:21 | 33.90555 | -118.53661 | 5134 ft | 255 kts | 243° |
| 2026-04-21 00:22 | 33.89834 | -118.55614 | 6140 ft | 253 kts | 244° |
| 2026-04-21 00:22 | 33.89131 | -118.57556 | 7118 ft | 250 kts | 245° |
| 2026-04-21 00:22 | 33.88454 | -118.59460 | 8100 ft | 246 kts | 243° |
| 2026-04-21 00:22 | 33.87591 | -118.61174 | 9116 ft | 235 kts | 223° |
| 2026-04-21 00:23 | 33.86302 | -118.62262 | 10130 ft | 221 kts | 200° |
| 2026-04-21 00:23 | 33.84839 | -118.62612 | 11016 ft | 213 kts | 179° |
| 2026-04-21 00:23 | 33.83375 | -118.62234 | 11597 ft | 222 kts | 157° |
| 2026-04-21 00:23 | 33.82096 | -118.61096 | 12052 ft | 242 kts | 134° |
| 2026-04-21 00:24 | 33.81285 | -118.59219 | 12440 ft | 268 kts | 107° |
| 2026-04-21 00:24 | 33.81426 | -118.56522 | 12891 ft | 298 kts | 70° |
| 2026-04-21 00:24 | 33.82578 | -118.54534 | 13269 ft | 317 kts | 46° |
| 2026-04-21 00:24 | 33.84208 | -118.52697 | 13651 ft | 334 kts | 42° |
| 2026-04-21 00:25 | 33.86121 | -118.50741 | 14040 ft | 350 kts | 40° |
| 2026-04-21 00:25 | 33.88092 | -118.48789 | 14496 ft | 362 kts | 40° |
| 2026-04-21 00:25 | 33.90128 | -118.46763 | 14891 ft | 376 kts | 40° |
| 2026-04-21 00:25 | 33.91651 | -118.45224 | 14970 ft | 382 kts | 41° |
| 2026-04-21 00:26 | 33.93386 | -118.43078 | 14997 ft | 383 kts | 53° |
| 2026-04-21 00:26 | 33.94977 | -118.40361 | 14999 ft | 382 kts | 58° |
| 2026-04-21 00:26 | 33.96569 | -118.37537 | 15002 ft | 382 kts | 58° |
| 2026-04-21 00:26 | 33.98097 | -118.34827 | 15001 ft | 382 kts | 58° |
| 2026-04-21 00:27 | 33.99606 | -118.32155 | 15000 ft | 382 kts | 57° |
| 2026-04-21 00:27 | 34.01042 | -118.29621 | 15000 ft | 382 kts | 57° |
| 2026-04-21 00:27 | 34.02621 | -118.26837 | 14998 ft | 382 kts | 57° |
| 2026-04-21 00:27 | 34.04091 | -118.24242 | 15100 ft | 385 kts | 58° |
| 2026-04-21 00:28 | 34.05643 | -118.21501 | 15632 ft | 385 kts | 58° |
| 2026-04-21 00:28 | 34.07068 | -118.18984 | 16209 ft | 390 kts | 58° |
| 2026-04-21 00:28 | 34.08653 | -118.16181 | 16849 ft | 394 kts | 58° |